Terminal Aerodrome Forecast
Issued by NWS Atlanta, GA

Home | Current Version | Previous Version | Text Only | Print | Product List | Glossary On
Versions: 1 2 3 4 5 6 7 8 9 10 11 12 13 14 15 16 17 18 19 20 21 22 23 24 25 26 27 28 29 30 31 32 33 34 35 36
720
FTUS42 KFFC 170202 AAA
TAFAHN
TAF AMD
KAHN 170202Z 1702/1724 25003KT P6SM SCT050 SCT250
      TEMPO 1702/1703 3SM TSRA BKN050CB
     FM170500 26003KT P6SM SCT250
     FM171400 27004KT P6SM SCT025 SCT200
     FM172000 26006KT P6SM SCT060 BKN120 PROB30 1720/1724 4SM -TSRA
      BKN050CB=

USA.gov is the U.S. government's official web portal to all federal, state and local government web resources and services.